Time;durP1;ratioP1;P1;durP2;ratioP2;P2;SDS_P1;SDS_P2;PMS_P1;PMS_P2;Temp;Humidity;BMP_temperature;BMP_pressure;BME280_temperature;BME280_humidity;BME280_pressure;Samples;Min_cycle;Max_cycle;Signal;HPM_P1;HPM_P2
2023/08/31 00:02:03;;;;;;;0.30;0.30;;;;;;;16.54;100.00;99587.34;5076500;28;20119;-63
2023/08/31 00:04:28;;;;;;;0.20;0.20;;;;;;;16.50;100.00;99583.13;5087842;28;20038;-63
2023/08/31 00:06:54;;;;;;;0.20;0.20;;;;;;;16.49;100.00;99592.16;5079503;28;20052;-63
2023/08/31 00:09:19;;;;;;;0.22;0.22;;;;;;;16.52;100.00;99591.94;5070655;28;20031;-64
2023/08/31 00:11:45;;;;;;;0.20;0.20;;;;;;;16.55;100.00;99587.25;5075976;28;20473;-63
2023/08/31 00:14:10;;;;;;;0.20;0.20;;;;;;;16.52;100.00;99586.56;5069902;28;20039;-63
2023/08/31 00:16:36;;;;;;;0.20;0.20;;;;;;;16.47;100.00;99597.63;5081403;28;20031;-63
2023/08/31 00:19:02;;;;;;;0.20;0.20;;;;;;;16.43;100.00;99587.97;5089446;28;20028;-63
2023/08/31 00:21:28;;;;;;;0.20;0.20;;;;;;;16.39;100.00;99580.22;5089044;28;20032;-62
2023/08/31 00:23:54;;;;;;;0.20;0.20;;;;;;;16.37;100.00;99590.19;5089974;28;20026;-63
2023/08/31 00:26:19;;;;;;;0.28;0.28;;;;;;;16.32;100.00;99584.25;5090462;28;20073;-62
2023/08/31 00:28:45;;;;;;;0.20;0.20;;;;;;;16.31;100.00;99593.25;5084693;28;20490;-63
2023/08/31 00:31:10;;;;;;;0.20;0.20;;;;;;;16.27;100.00;99592.59;5090036;28;20099;-63
2023/08/31 00:33:38;;;;;;;0.30;0.30;;;;;;;16.23;100.00;99591.03;5088448;28;20119;-62
2023/08/31 00:36:04;;;;;;;0.25;0.25;;;;;;;16.20;100.00;99585.88;5069229;28;20082;-62
2023/08/31 00:38:33;;;;;;;0.20;0.20;;;;;;;16.18;100.00;99593.16;5071243;28;20047;-62
2023/08/31 00:40:59;;;;;;;0.25;0.25;;;;;;;16.13;100.00;99594.41;5069264;28;20037;-62
2023/08/31 00:43:24;;;;;;;0.30;0.30;;;;;;;16.08;100.00;99593.84;5087833;28;20039;-63
2023/08/31 00:45:52;;;;;;;0.20;0.20;;;;;;;16.04;100.00;99594.97;5089221;28;20028;-63
2023/08/31 00:48:18;;;;;;;0.30;0.30;;;;;;;16.03;100.00;99601.28;5089578;28;20093;-63
2023/08/31 00:50:48;;;;;;;0.22;0.22;;;;;;;16.05;100.00;99596.69;5089807;28;20020;-62
2023/08/31 00:53:15;;;;;;;0.30;0.30;;;;;;;16.12;100.00;99606.09;5090025;28;20019;-63
2023/08/31 00:55:40;;;;;;;0.30;0.30;;;;;;;16.13;100.00;99603.31;5071428;28;20494;-63
2023/08/31 00:58:07;;;;;;;0.30;0.30;;;;;;;16.14;100.00;99605.03;5089957;28;20024;-63
2023/08/31 01:01:06;;;;;;;0.20;0.20;;;;;;;16.15;100.00;99604.06;5089186;28;20053;-62
2023/08/31 01:03:37;;;;;;;0.30;0.30;;;;;;;16.20;100.00;99601.09;5086040;28;20039;-63
2023/08/31 01:06:22;;;;;;;0.30;0.30;;;;;;;16.23;100.00;99606.28;5089041;28;20020;-63
2023/08/31 01:09:37;;;;;;;0.30;0.30;;;;;;;16.24;100.00;99602.66;5084884;28;20041;-62
2023/08/31 01:12:10;;;;;;;0.30;0.30;;;;;;;16.26;100.00;99603.44;5068463;28;20044;-63
2023/08/31 01:14:50;;;;;;;0.30;0.30;;;;;;;16.17;100.00;99595.94;5088828;28;20028;-62
2023/08/31 01:17:18;;;;;;;0.22;0.22;;;;;;;16.21;100.00;99603.69;5089054;28;20020;-62
2023/08/31 01:19:52;;;;;;;0.20;0.20;;;;;;;16.26;100.00;99598.91;5089004;28;20012;-62
2023/08/31 01:22:33;;;;;;;0.30;0.30;;;;;;;16.26;100.00;99606.94;5077033;28;20562;-63
2023/08/31 01:25:04;;;;;;;0.20;0.20;;;;;;;16.25;100.00;99605.25;5068859;28;20028;-63
2023/08/31 01:27:31;;;;;;;0.20;0.20;;;;;;;16.29;100.00;99605.91;5087264;28;20102;-62
2023/08/31 01:29:57;;;;;;;0.30;0.30;;;;;;;16.28;100.00;99609.53;5087745;28;20858;-62
2023/08/31 01:32:22;;;;;;;0.20;0.20;;;;;;;16.29;100.00;99605.91;5087665;28;20078;-62
2023/08/31 01:34:52;;;;;;;0.30;0.30;;;;;;;16.27;100.00;99605.13;5086776;28;20111;-62
2023/08/31 01:37:40;;;;;;;0.30;0.30;;;;;;;16.28;100.00;99609.53;5081895;28;20786;-62
2023/08/31 01:40:12;;;;;;;0.20;0.20;;;;;;;16.27;100.00;99607.81;5087141;28;20324;-62
2023/08/31 01:42:38;;;;;;;0.20;0.20;;;;;;;16.29;100.00;99611.28;5088049;28;20085;-62
2023/08/31 01:45:06;;;;;;;0.20;0.20;;;;;;;16.27;100.00;99610.50;5088840;28;20020;-62
2023/08/31 01:47:31;;;;;;;0.30;0.30;;;;;;;16.32;100.00;99621.81;5086311;28;20024;-62
2023/08/31 01:49:57;;;;;;;0.25;0.25;;;;;;;16.30;100.00;99626.41;5076918;28;20396;-62
2023/08/31 01:52:22;;;;;;;0.20;0.20;;;;;;;16.29;100.00;99616.66;5068565;28;20031;-62
2023/08/31 01:54:48;;;;;;;0.30;0.30;;;;;;;16.30;100.00;99627.28;5074200;28;20118;-62
2023/08/31 01:57:13;;;;;;;0.20;0.20;;;;;;;16.31;100.00;99628.16;5088200;28;20027;-62
2023/08/31 01:59:39;;;;;;;0.30;0.30;;;;;;;16.30;100.00;99618.38;5088789;28;20020;-63
2023/08/31 02:02:05;;;;;;;0.10;0.10;;;;;;;16.33;100.00;99621.72;5088004;28;20022;-63
2023/08/31 02:04:30;;;;;;;0.30;0.30;;;;;;;16.28;100.00;99620.28;5085111;28;20691;-63
2023/08/31 02:06:56;;;;;;;0.20;0.20;;;;;;;16.30;100.00;99629.09;5087630;28;20036;-63
2023/08/31 02:09:21;;;;;;;0.20;0.20;;;;;;;16.29;100.00;99624.69;5088988;28;20115;-64
2023/08/31 02:11:47;;;;;;;0.30;0.30;;;;;;;16.25;100.00;99615.09;5088948;28;20808;-63
2023/08/31 02:14:12;;;;;;;0.20;0.20;;;;;;;16.24;100.00;99616.94;5089227;28;20494;-63
2023/08/31 02:16:37;;;;;;;0.20;0.20;;;;;;;16.18;100.00;99632.53;5088350;28;20085;-63
2023/08/31 02:19:03;;;;;;;0.22;0.22;;;;;;;16.11;100.00;99629.34;5077876;28;20027;-63
2023/08/31 02:21:28;;;;;;;0.30;0.30;;;;;;;16.17;100.00;99633.50;5067527;28;20391;-62
2023/08/31 02:23:54;;;;;;;0.30;0.30;;;;;;;16.14;100.00;99631.88;5066642;28;20117;-63
2023/08/31 02:26:21;;;;;;;0.30;0.30;;;;;;;16.17;100.00;99638.88;5079686;28;20035;-62
2023/08/31 02:28:46;;;;;;;0.30;0.30;;;;;;;16.20;100.00;99641.34;5086640;28;20028;-63
2023/08/31 02:31:13;;;;;;;0.20;0.20;;;;;;;16.20;100.00;99644.03;5085443;28;20086;-62
2023/08/31 02:33:39;;;;;;;0.25;0.25;;;;;;;16.20;100.00;99644.03;5086933;28;20051;-63
2023/08/31 02:36:04;;;;;;;0.20;0.20;;;;;;;16.14;100.00;99633.69;5087040;28;20533;-63
2023/08/31 02:38:30;;;;;;;0.20;0.20;;;;;;;16.22;100.00;99642.13;5088410;28;20023;-63
2023/08/31 02:40:55;;;;;;;0.28;0.28;;;;;;;16.22;100.00;99643.00;5085967;28;20111;-63
2023/08/31 02:43:21;;;;;;;0.30;0.30;;;;;;;16.25;100.00;99652.66;5070293;28;20028;-62
2023/08/31 02:45:46;;;;;;;0.30;0.30;;;;;;;16.25;100.00;99647.31;5087699;28;20031;-62
2023/08/31 02:48:13;;;;;;;0.25;0.25;;;;;;;16.25;100.00;99650.00;5087715;28;20043;-63
2023/08/31 02:50:38;;;;;;;0.25;0.25;;;;;;;16.27;100.00;99653.44;5088257;28;20032;-62
2023/08/31 02:53:04;;;;;;;0.20;0.20;;;;;;;16.29;100.00;99648.84;5088457;28;20682;-63
2023/08/31 02:55:32;;;;;;;0.20;0.20;;;;;;;16.32;100.00;99643.28;5087609;28;20024;-62
2023/08/31 02:57:57;;;;;;;0.30;0.30;;;;;;;16.34;100.00;99647.59;5087751;28;20283;-63
2023/08/31 03:00:23;;;;;;;0.20;0.20;;;;;;;16.33;100.00;99639.63;5088395;28;20020;-63
2023/08/31 03:02:51;;;;;;;0.30;0.30;;;;;;;16.31;100.00;99655.00;5083678;28;20111;-63
2023/08/31 03:05:17;;;;;;;0.30;0.30;;;;;;;16.34;100.00;99649.44;5082962;28;20021;-63
2023/08/31 03:07:43;;;;;;;0.30;0.30;;;;;;;16.33;100.00;99642.31;5068057;28;20060;-63
2023/08/31 03:10:09;;;;;;;0.20;0.20;;;;;;;16.32;100.00;99654.91;5067677;28;20103;-62
2023/08/31 03:12:34;;;;;;;0.30;0.30;;;;;;;16.28;100.00;99657.84;5087333;28;20035;-63
2023/08/31 03:15:00;;;;;;;0.30;0.30;;;;;;;16.37;100.00;99657.28;5087937;28;20503;-62
2023/08/31 03:17:25;;;;;;;0.30;0.30;;;;;;;16.37;100.00;99659.97;5085772;28;20458;-63
2023/08/31 03:19:50;;;;;;;0.20;0.20;;;;;;;16.36;100.00;99669.84;5052029;28;20509;-63
2023/08/31 03:22:16;;;;;;;0.30;0.30;;;;;;;16.36;100.00;99666.31;5087057;28;20028;-64
2023/08/31 03:24:41;;;;;;;0.30;0.30;;;;;;;16.34;100.00;99669.06;5087188;28;20764;-63
2023/08/31 03:27:07;;;;;;;0.30;0.30;;;;;;;16.31;100.00;99674.63;5086709;28;20028;-62
2023/08/31 03:29:34;;;;;;;0.30;0.30;;;;;;;16.34;100.00;99676.28;5083074;28;20031;-62
2023/08/31 03:32:00;;;;;;;0.20;0.20;;;;;;;16.37;100.00;99678.78;5086959;28;20028;-64
2023/08/31 03:34:30;;;;;;;0.20;0.20;;;;;;;16.38;100.00;99676.00;5087389;28;20024;-62
2023/08/31 03:36:56;;;;;;;0.30;0.30;;;;;;;16.35;100.00;99669.94;5086530;28;20027;-63
2023/08/31 03:39:21;;;;;;;0.28;0.28;;;;;;;16.33;100.00;99669.16;5087658;28;20024;-63
2023/08/31 03:41:47;;;;;;;0.30;0.30;;;;;;;16.36;100.00;99677.06;5086082;28;20028;-62
2023/08/31 03:44:12;;;;;;;0.30;0.30;;;;;;;16.39;100.00;99679.53;5087955;28;20024;-62
2023/08/31 03:46:38;;;;;;;0.28;0.28;;;;;;;16.38;100.00;99677.81;5088118;28;20513;-62
2023/08/31 03:49:03;;;;;;;0.30;0.30;;;;;;;16.35;100.00;99669.94;5090699;28;20719;-63
2023/08/31 03:51:29;;;;;;;0.20;0.20;;;;;;;16.31;100.00;99684.53;5091233;28;20032;-63
2023/08/31 03:53:56;;;;;;;0.10;0.10;;;;;;;16.26;100.00;99670.53;5090669;28;20031;-63
2023/08/31 03:56:22;;;;;;;0.30;0.30;;;;;;;16.19;100.00;99680.78;5083631;28;20035;-62
2023/08/31 03:58:47;;;;;;;0.30;0.30;;;;;;;16.16;100.00;99674.72;5071082;28;20476;-62
2023/08/31 04:01:14;;;;;;;0.25;0.25;;;;;;;16.17;100.00;99687.16;5087233;28;20032;-62
2023/08/31 04:03:40;;;;;;;0.30;0.30;;;;;;;16.16;100.00;99691.66;5090657;28;20028;-62
2023/08/31 04:06:05;;;;;;;0.25;0.25;;;;;;;16.13;100.00;99688.31;5090933;28;20024;-62
2023/08/31 04:08:31;;;;;;;0.20;0.20;;;;;;;16.15;100.00;99689.06;5085972;28;20055;-63
2023/08/31 04:10:56;;;;;;;0.30;0.30;;;;;;;16.16;100.00;99691.66;5090475;28;20074;-62
2023/08/31 04:13:22;;;;;;;0.30;0.30;;;;;;;16.14;100.00;99692.72;5089579;28;20028;-62
2023/08/31 04:15:47;;;;;;;0.30;0.30;;;;;;;16.15;100.00;99695.31;5088838;28;20058;-62
2023/08/31 04:18:12;;;;;;;0.28;0.28;;;;;;;16.12;100.00;99698.19;5089952;28;20030;-62
2023/08/31 04:20:39;;;;;;;0.20;0.20;;;;;;;16.12;100.00;99700.88;5088973;28;20024;-62
2023/08/31 04:23:04;;;;;;;0.20;0.20;;;;;;;16.14;100.00;99698.09;5089606;28;20058;-62
2023/08/31 04:25:33;;;;;;;0.30;0.30;;;;;;;16.12;100.00;99706.22;5089522;28;20036;-63
2023/08/31 04:27:58;;;;;;;0.25;0.25;;;;;;;16.11;100.00;99706.34;5089850;28;20105;-62
2023/08/31 04:30:24;;;;;;;0.30;0.30;;;;;;;16.11;100.00;99704.50;5089547;28;20441;-62
2023/08/31 04:32:50;;;;;;;0.28;0.28;;;;;;;16.12;100.00;99700.88;5090299;28;20034;-62
2023/08/31 04:35:15;;;;;;;0.30;0.30;;;;;;;16.08;100.00;99696.63;5086999;28;20028;-63
2023/08/31 04:37:40;;;;;;;0.30;0.30;;;;;;;16.06;100.00;99700.38;5090534;28;20030;-62
2023/08/31 04:40:08;;;;;;;0.30;0.30;;;;;;;16.10;100.00;99708.13;5090362;28;20038;-63
2023/08/31 04:42:34;;;;;;;0.30;0.30;;;;;;;16.07;100.00;99699.41;5088663;28;20105;-62
2023/08/31 04:44:59;;;;;;;0.30;0.30;;;;;;;16.07;100.00;99708.31;5070101;28;20413;-63
2023/08/31 04:47:24;;;;;;;0.30;0.30;;;;;;;16.12;100.00;99705.34;5088836;28;20410;-62
2023/08/31 04:49:50;;;;;;;0.40;0.40;;;;;;;16.14;100.00;99703.47;5089126;28;20020;-63
2023/08/31 04:52:15;;;;;;;0.30;0.30;;;;;;;16.06;100.00;99706.63;5089969;28;20032;-63
2023/08/31 04:54:41;;;;;;;0.30;0.30;;;;;;;16.08;100.00;99714.56;5088246;28;20104;-62
2023/08/31 04:57:07;;;;;;;0.30;0.30;;;;;;;16.13;100.00;99710.63;5086849;28;20081;-62
2023/08/31 04:59:32;;;;;;;0.30;0.30;;;;;;;16.20;100.00;99713.81;5067490;28;20068;-62
2023/08/31 05:01:58;;;;;;;0.30;0.30;;;;;;;16.19;100.00;99720.16;5076471;28;20024;-62
2023/08/31 05:04:23;;;;;;;0.30;0.30;;;;;;;16.19;100.00;99722.84;5066911;28;20045;-62
2023/08/31 05:06:48;;;;;;;0.30;0.30;;;;;;;16.18;100.00;99726.44;5072486;28;20038;-63
2023/08/31 05:09:14;;;;;;;0.30;0.30;;;;;;;16.18;100.00;99726.44;5085229;28;20539;-62
2023/08/31 05:11:40;;;;;;;0.30;0.30;;;;;;;16.24;100.00;99742.22;5087497;28;20027;-62
2023/08/31 05:14:05;;;;;;;0.22;0.22;;;;;;;16.27;100.00;99747.38;5073119;28;20027;-63
2023/08/31 05:16:30;;;;;;;0.22;0.22;;;;;;;16.26;100.00;99751.03;5066985;28;20024;-62
2023/08/31 05:18:56;;;;;;;0.30;0.30;;;;;;;16.32;100.00;99750.66;5087859;28;20484;-62
2023/08/31 05:21:21;;;;;;;0.20;0.20;;;;;;;16.34;100.00;99746.06;5088306;28;20085;-62
2023/08/31 05:23:46;;;;;;;0.20;0.20;;;;;;;16.35;100.00;99755.84;5089359;28;20062;-61
2023/08/31 05:26:12;;;;;;;0.20;0.20;;;;;;;16.38;100.00;99761.88;5088353;28;20038;-62
2023/08/31 05:28:37;;;;;;;0.30;0.30;;;;;;;16.36;100.00;99758.44;5085693;28;20020;-62
2023/08/31 05:31:03;;;;;;;0.30;0.30;;;;;;;16.33;100.00;99747.88;5081732;28;20028;-62
2023/08/31 05:33:33;;;;;;;0.25;0.25;;;;;;;16.40;100.00;99756.44;5085556;28;20028;-62
2023/08/31 05:36:01;;;;;;;0.30;0.30;;;;;;;16.48;100.00;99760.41;5088266;28;20036;-62
2023/08/31 05:38:27;;;;;;;0.28;0.28;;;;;;;16.49;100.00;99755.91;5086908;28;20031;-62
2023/08/31 05:40:52;;;;;;;0.22;0.22;;;;;;;16.50;100.00;99763.00;5086575;28;20024;-63
2023/08/31 05:43:17;;;;;;;0.28;0.28;;;;;;;16.51;100.00;99759.34;5085946;28;20587;-62
2023/08/31 05:45:43;;;;;;;0.30;0.30;;;;;;;16.54;100.00;99767.25;5082893;28;20024;-62
2023/08/31 05:48:08;;;;;;;0.25;0.25;;;;;;;16.58;100.00;99766.09;5086303;28;20024;-62
2023/08/31 05:50:34;;;;;;;0.30;0.30;;;;;;;16.57;100.00;99767.91;5088275;28;20111;-62
2023/08/31 05:53:00;;;;;;;0.20;0.20;;;;;;;16.56;100.00;99759.94;5079292;28;20066;-62
2023/08/31 05:55:25;;;;;;;0.25;0.25;;;;;;;16.54;100.00;99757.34;5079480;28;20035;-62
2023/08/31 05:57:50;;;;;;;0.28;0.28;;;;;;;16.55;100.00;99758.22;5083040;28;20040;-62
2023/08/31 06:00:17;;;;;;;0.30;0.30;;;;;;;16.57;100.00;99767.06;5079294;28;20042;-62
2023/08/31 06:02:44;;;;;;;0.20;0.20;;;;;;;16.60;100.00;99758.81;5081065;28;20479;-62
2023/08/31 06:05:12;;;;;;;0.20;0.20;;;;;;;16.59;100.00;99754.41;5087550;28;20055;-62
2023/08/31 06:07:38;;;;;;;0.28;0.28;;;;;;;16.61;100.00;99764.09;5085148;28;20500;-62
2023/08/31 06:10:04;;;;;;;0.20;0.20;;;;;;;16.68;100.00;99775.31;5066993;28;20028;-62
2023/08/31 06:12:30;;;;;;;0.30;0.30;;;;;;;16.77;100.00;99782.81;5083518;28;20119;-62
2023/08/31 06:14:55;;;;;;;0.30;0.30;;;;;;;16.82;100.00;99778.88;5087067;28;20123;-62
2023/08/31 06:17:21;;;;;;;0.30;0.30;;;;;;;16.91;100.00;99777.44;5069030;28;20078;-62
2023/08/31 06:19:46;;;;;;;0.30;0.30;;;;;;;16.98;100.00;99794.94;5084546;28;20033;-62
2023/08/31 06:22:11;;;;;;;0.30;0.30;;;;;;;17.06;100.00;99787.25;5087919;28;20490;-62
2023/08/31 06:24:37;;;;;;;0.30;0.30;;;;;;;17.23;100.00;99784.38;5087375;28;20035;-61
2023/08/31 06:27:03;;;;;;;0.30;0.30;;;;;;;17.35;100.00;99788.94;5088161;28;20024;-62
2023/08/31 06:29:28;;;;;;;0.20;0.20;;;;;;;17.53;100.00;99798.56;5086214;28;20036;-62
2023/08/31 06:31:54;;;;;;;0.20;0.20;;;;;;;17.80;100.00;99796.78;5085742;28;20035;-62
2023/08/31 06:34:19;;;;;;;0.20;0.20;;;;;;;17.91;100.00;99788.00;5073426;28;20028;-62
2023/08/31 06:36:45;;;;;;;0.30;0.30;;;;;;;17.98;100.00;99790.19;5082599;28;20027;-62
2023/08/31 06:39:10;;;;;;;0.20;0.20;;;;;;;18.11;100.00;99801.88;5085173;28;20020;-62
2023/08/31 06:41:36;;;;;;;0.20;0.20;;;;;;;18.35;100.00;99805.59;5087526;28;20055;-62
2023/08/31 06:44:05;;;;;;;0.20;0.20;;;;;;;18.54;100.00;99799.00;5087437;28;20110;-61
2023/08/31 06:46:34;;;;;;;0.20;0.20;;;;;;;18.60;100.00;99787.81;5074591;28;20439;-62
2023/08/31 06:49:00;;;;;;;0.20;0.20;;;;;;;19.04;100.00;99801.75;5080571;28;20127;-62
2023/08/31 06:51:25;;;;;;;0.20;0.20;;;;;;;19.37;100.00;99799.38;5081376;28;20107;-62
2023/08/31 06:53:51;;;;;;;0.20;0.20;;;;;;;19.73;99.59;99810.22;5081154;28;20049;-62
2023/08/31 06:56:16;;;;;;;0.10;0.10;;;;;;;19.51;95.56;99816.28;5073926;28;20336;-63
2023/08/31 06:58:42;;;;;;;0.20;0.20;;;;;;;19.44;97.60;99814.13;5077884;28;20031;-62
2023/08/31 07:01:08;;;;;;;0.20;0.20;;;;;;;19.63;96.65;99819.94;5086061;28;20031;-62
2023/08/31 07:03:34;;;;;;;0.30;0.30;;;;;;;19.61;96.22;99816.50;5067760;28;20499;-63
2023/08/31 07:06:00;;;;;;;0.20;0.20;;;;;;;20.01;96.39;99823.41;5078130;28;20059;-62
2023/08/31 07:08:25;;;;;;;0.20;0.20;;;;;;;20.79;94.31;99820.06;5082680;28;20378;-62
2023/08/31 07:10:51;;;;;;;0.20;0.20;;;;;;;21.40;89.74;99826.13;5076935;28;20056;-62
2023/08/31 07:13:16;;;;;;;0.20;0.20;;;;;;;22.04;86.41;99830.78;5070025;28;20024;-62
2023/08/31 07:15:41;;;;;;;0.13;0.13;;;;;;;22.36;80.85;99825.38;5086106;28;20119;-61
2023/08/31 07:18:07;;;;;;;0.10;0.10;;;;;;;22.10;78.93;99823.00;5073633;28;20047;-62
2023/08/31 07:20:33;;;;;;;0.10;0.10;;;;;;;21.83;80.15;99827.09;5089510;28;20027;-62
2023/08/31 07:22:59;;;;;;;0.20;0.20;;;;;;;21.80;81.44;99840.91;5089751;28;20024;-62
2023/08/31 07:25:24;;;;;;;0.20;0.20;;;;;;;22.26;80.39;99836.13;5071033;28;20028;-62
2023/08/31 07:27:50;;;;;;;0.10;0.10;;;;;;;22.50;78.22;99836.81;5090715;28;20031;-62
2023/08/31 07:30:16;;;;;;;0.13;0.13;;;;;;;22.50;76.47;99844.06;5091012;28;20028;-62
2023/08/31 07:32:41;;;;;;;0.10;0.10;;;;;;;22.29;76.26;99854.00;5090375;28;20051;-62
2023/08/31 07:35:07;;;;;;;0.10;0.10;;;;;;;22.23;78.07;99859.91;5076426;28;20032;-63
2023/08/31 07:37:32;;;;;;;0.10;0.10;;;;;;;22.78;79.39;99852.50;5086529;28;20054;-62
2023/08/31 07:39:58;;;;;;;0.10;0.10;;;;;;;23.11;74.00;99849.56;5069160;28;20060;-63
2023/08/31 07:42:23;;;;;;;0.10;0.10;;;;;;;23.26;69.68;99859.13;5077495;28;20484;-63
2023/08/31 07:44:49;;;;;;;0.10;0.10;;;;;;;23.03;67.71;99860.22;5088625;28;20494;-62
2023/08/31 07:47:14;;;;;;;0.10;0.10;;;;;;;22.49;69.44;99867.59;5081986;28;20036;-62
2023/08/31 07:49:40;;;;;;;0.10;0.10;;;;;;;22.10;70.96;99866.34;5088799;28;20043;-62
2023/08/31 07:52:05;;;;;;;0.10;0.10;;;;;;;22.08;72.18;99868.31;5076510;28;20131;-62
2023/08/31 07:54:30;;;;;;;0.10;0.10;;;;;;;21.91;72.93;99873.41;5085296;28;20089;-63
2023/08/31 07:56:56;;;;;;;0.10;0.10;;;;;;;21.77;74.40;99873.66;5088508;28;20039;-64
2023/08/31 07:59:21;;;;;;;0.10;0.10;;;;;;;21.45;75.13;99878.88;5086236;28;20059;-63
2023/08/31 08:01:48;;;;;;;0.10;0.10;;;;;;;21.45;76.19;99878.03;5088968;28;20039;-63
2023/08/31 08:04:13;;;;;;;0.10;0.10;;;;;;;21.60;75.46;99888.50;5082998;28;20538;-62
2023/08/31 08:06:39;;;;;;;0.10;0.10;;;;;;;21.70;72.93;99888.63;5070873;28;20184;-63
2023/08/31 08:09:04;;;;;;;0.10;0.10;;;;;;;22.19;73.16;99891.81;5076101;28;20124;-62
2023/08/31 08:11:30;;;;;;;0.10;0.10;;;;;;;22.35;73.25;99881.44;5067908;28;20034;-62
2023/08/31 08:13:56;;;;;;;0.15;0.15;;;;;;;22.60;73.87;99894.69;5080324;28;20024;-62
2023/08/31 08:16:21;;;;;;;0.10;0.10;;;;;;;22.66;71.75;99896.91;5077034;28;20377;-63
2023/08/31 08:18:47;;;;;;;0.10;0.10;;;;;;;22.72;71.13;99895.50;5071516;28;20545;-63
2023/08/31 08:21:12;;;;;;;0.10;0.10;;;;;;;22.71;67.69;99900.09;5082932;28;20031;-63
2023/08/31 08:23:37;;;;;;;0.10;0.10;;;;;;;23.25;69.24;99889.97;5075510;28;20139;-63
2023/08/31 08:26:03;;;;;;;0.10;0.10;;;;;;;23.34;65.59;99888.34;5069952;28;20115;-63
2023/08/31 08:28:28;;;;;;;0.10;0.10;;;;;;;23.15;65.68;99897.16;5073104;28;20453;-63
2023/08/31 08:30:54;;;;;;;0.10;0.10;;;;;;;22.81;66.10;99898.34;5069547;28;20545;-63
2023/08/31 08:33:19;;;;;;;0.10;0.10;;;;;;;22.61;67.07;99907.28;5076630;28;20078;-63
2023/08/31 08:35:45;;;;;;;0.20;0.20;;;;;;;22.19;63.83;99908.94;5059533;28;20077;-63
2023/08/31 08:38:11;;;;;;;0.10;0.10;;;;;;;21.89;63.62;99910.56;5085366;28;20034;-63
2023/08/31 08:40:37;;;;;;;0.10;0.10;;;;;;;21.82;66.27;99910.22;5081309;28;20572;-63
2023/08/31 08:43:05;;;;;;;0.10;0.10;;;;;;;21.77;64.79;99906.13;5076477;28;20024;-62
2023/08/31 08:45:38;;;;;;;0.10;0.10;;;;;;;22.02;66.12;99912.19;5088820;28;20031;-62
2023/08/31 08:48:08;;;;;;;0.10;0.10;;;;;;;22.31;66.15;99912.50;5089577;28;20024;-63
2023/08/31 08:50:35;;;;;;;0.10;0.10;;;;;;;22.41;66.86;99908.03;5088099;28;20035;-63
2023/08/31 08:53:04;;;;;;;0.10;0.10;;;;;;;22.25;63.48;99912.13;5089248;28;20040;-63
2023/08/31 08:55:30;;;;;;;0.10;0.10;;;;;;;22.18;64.42;99917.19;5088866;28;20055;-63
2023/08/31 08:57:55;;;;;;;0.10;0.10;;;;;;;22.16;64.30;99920.03;5088110;28;20409;-63
2023/08/31 09:00:21;;;;;;;0.10;0.10;;;;;;;22.23;66.05;99914.97;5088449;28;20031;-63
2023/08/31 09:02:46;;;;;;;0.10;0.10;;;;;;;22.60;63.40;99913.66;5086805;28;20453;-63
2023/08/31 09:05:12;;;;;;;0.10;0.10;;;;;;;23.47;62.37;99907.13;5089026;28;20032;-63
2023/08/31 09:07:38;;;;;;;0.10;0.10;;;;;;;24.46;58.90;99906.28;5088812;28;20040;-62
2023/08/31 09:10:04;;;;;;;0.10;0.10;;;;;;;25.33;56.10;99908.91;5085981;28;20149;-63
2023/08/31 09:12:30;;;;;;;0.10;0.10;;;;;;;25.82;51.92;99905.09;5069834;28;20559;-63
2023/08/31 09:15:06;;;;;;;0.10;0.10;;;;;;;25.83;49.42;99915.00;5074011;28;20055;-63
2023/08/31 09:17:41;;;;;;;0.10;0.10;;;;;;;26.18;49.85;99897.94;5086005;28;20089;-63
2023/08/31 09:20:08;;;;;;;0.10;0.10;;;;;;;25.98;46.65;99911.63;5071890;28;21040;-63
2023/08/31 09:22:34;;;;;;;0.10;0.10;;;;;;;26.14;46.24;99910.16;5086896;28;20103;-63
2023/08/31 09:24:59;;;;;;;0.10;0.10;;;;;;;26.62;46.32;99910.75;5073983;28;20451;-63
2023/08/31 09:27:25;;;;;;;0.10;0.10;;;;;;;26.84;45.91;99908.44;5073875;28;20954;-63
2023/08/31 09:29:54;;;;;;;0.10;0.10;;;;;;;26.97;45.33;99911.66;5073365;28;20020;-63
2023/08/31 09:32:20;;;;;;;0.10;0.10;;;;;;;26.88;43.57;99895.34;5076554;28;20548;-64
2023/08/31 09:34:45;;;;;;;0.00;0.00;;;;;;;26.58;43.73;99903.88;5085942;28;20031;-63
2023/08/31 09:37:11;;;;;;;0.10;0.10;;;;;;;26.56;43.05;99919.53;5072310;28;20095;-62
2023/08/31 09:39:41;;;;;;;0.10;0.10;;;;;;;26.92;42.20;99910.38;5067538;28;20143;-63
2023/08/31 09:42:06;;;;;;;0.10;0.10;;;;;;;27.18;42.06;99909.44;5067965;28;20654;-63
2023/08/31 09:44:31;;;;;;;0.10;0.10;;;;;;;26.90;41.07;99921.47;5080729;28;20028;-63
2023/08/31 09:46:58;;;;;;;0.10;0.10;;;;;;;26.60;42.90;99908.16;5088481;28;20361;-64
2023/08/31 09:49:24;;;;;;;0.10;0.10;;;;;;;26.23;42.75;99912.00;5075741;28;20087;-64
2023/08/31 09:51:50;;;;;;;0.10;0.10;;;;;;;25.52;43.32;99914.34;5068686;28;20028;-64
2023/08/31 09:54:19;;;;;;;0.10;0.10;;;;;;;24.91;45.37;99918.38;5072487;28;20391;-64
2023/08/31 09:56:47;;;;;;;0.10;0.10;;;;;;;24.87;48.92;99916.09;5069929;28;20078;-64
2023/08/31 09:59:14;;;;;;;0.10;0.10;;;;;;;25.10;50.50;99912.09;5068503;28;20035;-63
2023/08/31 10:01:41;;;;;;;0.10;0.10;;;;;;;25.37;45.86;99909.53;5072758;28;20031;-64
2023/08/31 10:04:08;;;;;;;0.10;0.10;;;;;;;25.39;45.44;99916.53;5069231;28;20638;-64
2023/08/31 10:06:36;;;;;;;0.10;0.10;;;;;;;25.29;47.83;99918.38;5086453;28;20027;-64
2023/08/31 10:09:03;;;;;;;0.10;0.10;;;;;;;25.11;48.78;99914.66;5082386;28;20633;-64
2023/08/31 10:11:31;;;;;;;0.10;0.10;;;;;;;24.57;48.88;99908.88;5067344;28;20055;-64
2023/08/31 10:13:58;;;;;;;0.10;0.10;;;;;;;23.89;49.02;99911.47;5068307;28;20052;-64
2023/08/31 10:16:26;;;;;;;0.10;0.10;;;;;;;23.36;50.76;99913.47;5079302;28;20060;-63
2023/08/31 10:18:52;;;;;;;0.10;0.10;;;;;;;23.03;53.56;99919.06;5086000;28;20020;-64
2023/08/31 10:21:18;;;;;;;0.10;0.10;;;;;;;22.69;54.86;99915.63;5079424;28;20038;-63
2023/08/31 10:23:45;;;;;;;0.10;0.10;;;;;;;22.44;57.54;99913.19;5085712;28;20043;-64
2023/08/31 10:26:10;;;;;;;0.10;0.10;;;;;;;22.27;58.12;99908.31;5071051;28;20085;-64
2023/08/31 10:28:40;;;;;;;0.10;0.10;;;;;;;22.18;55.95;99906.34;5069495;28;20032;-64
2023/08/31 10:31:08;;;;;;;0.10;0.10;;;;;;;22.33;58.03;99907.81;5066783;28;20166;-63
2023/08/31 10:33:44;;;;;;;0.10;0.10;;;;;;;22.51;56.96;99903.56;5081616;28;20419;-64
2023/08/31 10:36:14;;;;;;;0.10;0.10;;;;;;;23.06;55.10;99910.66;5086849;28;20043;-64
2023/08/31 10:38:41;;;;;;;0.10;0.10;;;;;;;23.60;55.12;99902.34;5072967;28;20798;-63
2023/08/31 10:41:06;;;;;;;0.10;0.10;;;;;;;23.95;49.38;99895.53;5066996;28;20021;-63
2023/08/31 10:43:53;;;;;;;0.10;0.10;;;;;;;25.12;50.27;99902.78;5070412;28;20086;-63
2023/08/31 10:46:28;;;;;;;0.10;0.10;;;;;;;26.09;48.54;99898.84;5078391;28;20491;-63
2023/08/31 10:49:09;;;;;;;0.10;0.10;;;;;;;25.80;46.43;99894.34;5078301;28;20023;-63
2023/08/31 10:51:36;;;;;;;0.10;0.10;;;;;;;25.14;46.08;99902.63;5076603;28;20028;-63
2023/08/31 10:54:12;;;;;;;0.10;0.10;;;;;;;24.71;49.12;99885.88;5068009;28;20033;-63
2023/08/31 10:57:18;;;;;;;0.10;0.10;;;;;;;24.21;49.02;99885.03;5081828;28;20345;-63
2023/08/31 10:59:51;;;;;;;0.10;0.10;;;;;;;23.74;50.72;99881.09;5070977;28;20039;-63
2023/08/31 11:02:47;;;;;;;0.10;0.10;;;;;;;23.37;52.13;99880.78;5057550;28;20056;-63
2023/08/31 11:05:16;;;;;;;0.10;0.10;;;;;;;23.08;53.26;99898.69;5059288;28;20086;-63
2023/08/31 11:07:49;;;;;;;0.10;0.10;;;;;;;22.89;54.66;99895.81;5085009;28;20052;-63
2023/08/31 11:10:20;;;;;;;;;;;;;;;22.65;57.93;99895.16;5091897;28;20040;-64
2023/08/31 11:12:48;;;;;;;0.10;0.10;;;;;;;22.43;59.60;99891.66;5088410;28;19965;-63
2023/08/31 11:15:16;;;;;;;0.10;0.10;;;;;;;22.29;61.38;99900.91;5071792;28;20123;-63
2023/08/31 11:17:42;;;;;;;0.10;0.10;;;;;;;22.53;59.82;99885.38;5082619;28;20361;-63
2023/08/31 11:20:12;;;;;;;0.10;0.10;;;;;;;23.67;56.91;99884.50;5084860;28;20023;-64
2023/08/31 11:22:40;;;;;;;0.10;0.10;;;;;;;25.00;51.62;99875.84;5084220;28;20096;-64
2023/08/31 11:25:07;;;;;;;0.10;0.10;;;;;;;26.25;49.06;99874.50;5084694;28;20020;-64
2023/08/31 11:27:32;;;;;;;0.10;0.10;;;;;;;27.35;45.85;99861.28;5091489;28;20103;-65
2023/08/31 11:29:58;;;;;;;0.10;0.10;;;;;;;28.13;44.11;99860.22;5091613;28;20024;-66